createdAt,value
2018-07-05T19:56:08.312Z,20.93
2018-07-05T19:58:48.490Z,20.89
2018-07-05T20:01:29.345Z,20.85
2018-07-05T20:04:09.222Z,20.76
2018-07-05T20:06:48.980Z,20.74
2018-07-05T20:09:29.434Z,20.75
2018-07-05T20:12:09.862Z,20.69
2018-07-05T20:14:49.732Z,20.66
2018-07-05T20:17:29.916Z,20.62
2018-07-05T20:20:10.043Z,20.52
2018-07-05T20:22:49.789Z,20.47
2018-07-05T20:25:29.802Z,20.54
2018-07-05T20:28:10.286Z,20.48
2018-07-05T20:30:50.448Z,20.39
2018-07-05T20:33:30.455Z,20.24
2018-07-05T20:36:10.575Z,20.28
2018-07-05T20:38:50.429Z,20.24
2018-07-05T20:41:30.456Z,20.13
2018-07-05T20:44:10.214Z,20.14
2018-07-05T20:46:50.587Z,20.08
2018-07-05T20:49:30.595Z,20.05
2018-07-05T20:52:10.377Z,20.07
2018-07-05T20:54:50.104Z,20.00
2018-07-05T20:57:30.137Z,19.97
2018-07-05T21:00:09.915Z,19.93
2018-07-05T21:02:49.996Z,19.86
2018-07-05T21:05:29.776Z,19.91
2018-07-05T21:08:09.459Z,19.80
2018-07-05T21:10:49.207Z,19.76
2018-07-05T21:13:29.261Z,19.71
2018-07-05T21:16:08.823Z,19.64
2018-07-05T21:18:49.170Z,19.71
2018-07-05T21:21:28.905Z,19.62
2018-07-05T21:24:09.495Z,19.58
2018-07-05T21:26:49.326Z,19.51
2018-07-05T21:29:29.211Z,19.51
2018-07-05T21:32:08.664Z,19.49
2018-07-05T21:34:48.870Z,19.40
2018-07-05T21:37:28.824Z,19.42
2018-07-05T21:40:08.611Z,19.37
2018-07-05T21:42:48.412Z,19.32
2018-07-05T21:45:28.045Z,19.30
2018-07-05T21:48:07.675Z,19.28
2018-07-05T21:50:47.662Z,19.29
2018-07-05T21:53:27.201Z,19.27
2018-07-05T21:56:07.191Z,19.25
2018-07-05T21:58:46.859Z,19.25
2018-07-05T22:01:27.049Z,19.23
2018-07-05T22:04:06.530Z,19.22
2018-07-05T22:06:46.360Z,19.20
2018-07-05T22:09:25.988Z,19.12
2018-07-05T22:12:05.937Z,19.04
2018-07-05T22:14:45.749Z,19.01
2018-07-05T22:17:30.615Z,19.00
2018-07-05T22:20:15.362Z,18.97
2018-07-05T22:23:00.598Z,18.97
2018-07-05T22:25:45.601Z,18.89
2018-07-05T22:28:30.833Z,18.87
2018-07-05T22:31:15.776Z,18.76
2018-07-05T22:33:55.818Z,18.77
2018-07-05T22:36:35.605Z,18.73
2018-07-05T22:39:15.171Z,18.76
2018-07-05T22:41:54.978Z,18.65
2018-07-05T22:44:34.537Z,18.59
2018-07-05T22:47:14.359Z,18.58
2018-07-05T22:49:54.338Z,18.62
2018-07-05T22:52:33.922Z,18.54
2018-07-05T22:55:14.018Z,18.46
2018-07-05T22:57:53.847Z,18.46
2018-07-05T23:00:33.544Z,18.44
2018-07-05T23:03:13.520Z,18.46
2018-07-05T23:05:53.430Z,18.44
2018-07-05T23:08:33.444Z,18.43
2018-07-05T23:11:13.632Z,18.33
2018-07-05T23:13:53.345Z,18.30
2018-07-05T23:16:32.930Z,18.21
2018-07-05T23:19:12.584Z,18.16
2018-07-05T23:21:52.523Z,18.16
2018-07-05T23:24:31.986Z,18.12
2018-07-05T23:27:11.888Z,18.09
2018-07-05T23:29:51.423Z,18.05
2018-07-05T23:32:31.394Z,18.02
2018-07-05T23:35:11.186Z,17.97
2018-07-05T23:37:50.986Z,17.93
2018-07-05T23:40:30.699Z,17.90
2018-07-05T23:43:10.663Z,17.93
2018-07-05T23:45:50.283Z,17.96
2018-07-05T23:48:30.259Z,18.03
2018-07-05T23:51:09.863Z,18.12
2018-07-05T23:53:49.559Z,18.17
2018-07-05T23:56:29.096Z,18.15
2018-07-05T23:59:09.138Z,18.10
